Time;durP1;ratioP1;P1;durP2;ratioP2;P2;SDS_P1;SDS_P2;PMS_P1;PMS_P2;Temp;Humidity;BMP_temperature;BMP_pressure;BME280_temperature;BME280_humidity;BME280_pressure;Samples;Min_cycle;Max_cycle;Signal;HPM_P1;HPM_P2
2022/03/08 00:02:25;;;;;;;17.27;11.02;;;2.00;73.50;;;;;;5010149;28;20029;-84
2022/03/08 00:04:51;;;;;;;16.60;10.20;;;1.90;73.50;;;;;;5013849;28;20581;-80
2022/03/08 00:07:16;;;;;;;18.67;10.32;;;0.90;74.30;;;;;;5011489;28;20487;-80
2022/03/08 00:09:43;;;;;;;17.38;9.82;;;1.80;74.90;;;;;;5015852;28;20033;-81
2022/03/08 00:12:09;;;;;;;18.17;10.63;;;1.70;75.20;;;;;;5011242;28;20818;-80
2022/03/08 00:14:35;;;;;;;20.45;11.07;;;1.60;76.20;;;;;;5028614;28;20026;-81
2022/03/08 00:17:02;;;;;;;17.23;9.93;;;1.50;76.40;;;;;;5021881;28;20026;-81
2022/03/08 00:19:27;;;;;;;17.98;10.35;;;1.50;76.40;;;;;;5013444;28;20032;-83
2022/03/08 00:21:53;;;;;;;17.85;10.80;;;1.50;76.20;;;;;;5029384;28;20421;-83
2022/03/08 00:24:19;;;;;;;17.17;9.85;;;1.50;76.10;;;;;;5015066;28;20025;-88
2022/03/08 00:26:45;;;;;;;17.77;9.93;;;1.80;76.90;;;;;;5013688;28;20037;-82
2022/03/08 00:29:10;;;;;;;17.85;10.20;;;1.40;76.50;;;;;;5035765;28;20029;-80
2022/03/08 00:31:36;;;;;;;14.93;9.73;;;1.50;75.80;;;;;;5011702;28;20112;-80
2022/03/08 00:34:03;;;;;;;16.13;10.50;;;1.80;75.20;;;;;;5018912;28;20049;-83
2022/03/08 00:36:30;;;;;;;15.52;9.52;;;1.60;74.80;;;;;;5017264;28;20033;-79
2022/03/08 00:38:55;;;;;;;23.70;11.20;;;1.60;74.90;;;;;;5017502;28;20026;-81
2022/03/08 00:41:22;;;;;;;21.80;10.45;;;1.70;74.30;;;;;;5014122;28;20036;-83
2022/03/08 00:43:48;;;;;;;17.88;10.82;;;1.80;73.70;;;;;;5027557;28;20922;-82
2022/03/08 00:46:15;;;;;;;18.73;10.95;;;2.00;73.00;;;;;;5015754;28;20498;-81
2022/03/08 00:48:42;;;;;;;21.83;11.00;;;2.00;72.20;;;;;;5031371;28;20033;-79
2022/03/08 00:51:07;;;;;;;20.60;10.05;;;1.90;72.10;;;;;;5036867;28;20059;-81
2022/03/08 00:53:34;;;;;;;18.27;10.52;;;2.20;71.90;;;;;;5017582;28;20077;-79
2022/03/08 00:55:59;;;;;;;17.02;10.90;;;1.90;71.80;;;;;;5021420;28;20032;-83
2022/03/08 00:58:25;;;;;;;16.75;10.70;;;2.00;73.20;;;;;;5029335;28;20029;-81
2022/03/08 01:00:51;;;;;;;17.23;9.77;;;3.60;73.30;;;;;;5036294;28;20105;-80
2022/03/08 01:03:17;;;;;;;16.80;10.45;;;;;;;;;;5028053;28;20049;-80
2022/03/08 01:05:43;;;;;;;14.23;9.32;;;2.00;71.80;;;;;;5017593;28;20037;-83
2022/03/08 01:08:13;;;;;;;16.75;9.38;;;2.00;72.40;;;;;;5033522;28;20033;-79
2022/03/08 01:10:39;;;;;;;17.50;10.67;;;2.00;72.60;;;;;;5014707;28;20033;-79
2022/03/08 01:13:05;;;;;;;15.35;9.27;;;1.90;72.60;;;;;;5033060;28;20168;-82
2022/03/08 01:15:32;;;;;;;15.70;9.27;;;1.80;72.90;;;;;;5018127;28;20060;-85
2022/03/08 01:17:58;;;;;;;19.15;9.85;;;1.70;73.40;;;;;;5027322;28;20026;-80
2022/03/08 01:20:24;;;;;;;15.77;9.07;;;1.70;73.70;;;;;;5016199;28;20528;-82
2022/03/08 01:22:50;;;;;;;14.40;9.20;;;1.60;74.10;;;;;;5042397;28;20037;-81
2022/03/08 01:25:18;;;;;;;17.17;10.10;;;1.60;74.70;;;;;;5011169;28;20513;-82
2022/03/08 01:27:43;;;;;;;16.10;9.50;;;1.60;75.10;;;;;;5030983;28;20038;-80
2022/03/08 01:30:12;;;;;;;17.38;10.13;;;1.60;75.10;;;;;;5034051;28;20033;-82
2022/03/08 01:32:38;;;;;;;15.68;9.32;;;1.70;74.80;;;;;;5016026;28;20407;-81
2022/03/08 01:35:05;;;;;;;14.52;9.15;;;1.70;74.40;;;;;;5032137;28;20034;-83
2022/03/08 01:37:30;;;;;;;16.52;10.35;;;1.60;74.30;;;;;;5031342;28;20060;-85
2022/03/08 01:39:56;;;;;;;15.38;9.75;;;1.50;74.40;;;;;;5027419;28;20503;-85
2022/03/08 01:42:25;;;;;;;15.60;9.50;;;2.10;75.60;;;;;;5014383;28;20056;-83
2022/03/08 01:44:53;;;;;;;18.33;10.88;;;1.50;75.50;;;;;;5015418;28;20025;-81
2022/03/08 01:47:21;;;;;;;17.95;10.40;;;1.40;75.10;;;;;;5012015;28;20026;-80
2022/03/08 01:49:47;;;;;;;17.48;9.05;;;1.50;74.50;;;;;;5014374;28;20026;-84
2022/03/08 01:52:14;;;;;;;15.38;9.50;;;1.40;74.80;;;;;;5010093;28;20028;-82
2022/03/08 01:54:41;;;;;;;16.63;9.93;;;1.40;75.10;;;;;;5009866;28;20031;-79
2022/03/08 01:57:08;;;;;;;18.13;9.80;;;1.50;74.40;;;;;;5023220;28;20051;-81
2022/03/08 01:59:34;;;;;;;14.73;9.02;;;1.50;74.70;;;;;;5007914;28;20037;-80
2022/03/08 02:02:01;;;;;;;14.77;9.40;;;1.50;73.80;;;;;;5020299;28;20094;-80
2022/03/08 02:04:27;;;;;;;16.00;9.45;;;1.50;74.10;;;;;;5031620;28;20026;-82
2022/03/08 02:06:53;;;;;;;17.60;10.27;;;1.50;74.00;;;;;;5009195;28;20030;-86
2022/03/08 02:09:20;;;;;;;14.10;9.23;;;1.60;74.20;;;;;;5013819;28;20025;-81
2022/03/08 02:11:47;;;;;;;14.35;9.30;;;1.60;73.10;;;;;;5009577;28;20033;-82
2022/03/08 02:14:15;;;;;;;15.27;9.73;;;1.60;73.70;;;;;;5008061;28;20021;-82
2022/03/08 02:16:41;;;;;;;15.68;9.57;;;1.60;74.00;;;;;;5026520;28;20033;-82
2022/03/08 02:19:10;;;;;;;17.90;9.80;;;1.50;73.80;;;;;;5028667;28;20086;-84
2022/03/08 02:21:36;;;;;;;15.43;9.48;;;1.60;73.70;;;;;;5027251;28;20309;-82
2022/03/08 02:24:02;;;;;;;15.40;9.90;;;1.60;73.60;;;;;;5014068;28;20521;-84
2022/03/08 02:26:27;;;;;;;14.27;8.68;;;1.50;72.90;;;;;;5014454;28;20117;-84
2022/03/08 02:28:54;;;;;;;15.23;10.15;;;1.60;73.60;;;;;;5032795;28;20061;-82
2022/03/08 02:31:19;;;;;;;12.77;8.75;;;1.50;73.80;;;;;;5018946;28;20021;-84
2022/03/08 02:33:45;;;;;;;13.98;9.18;;;1.50;73.60;;;;;;5033227;28;20577;-82
2022/03/08 02:36:11;;;;;;;15.13;9.63;;;1.50;74.50;;;;;;5012897;28;20026;-81
2022/03/08 02:38:37;;;;;;;15.35;9.77;;;1.50;73.70;;;;;;5014861;28;20064;-83
2022/03/08 02:41:02;;;;;;;13.93;8.98;;;1.40;73.60;;;;;;5027129;28;20030;-84
2022/03/08 02:43:28;;;;;;;15.35;9.90;;;2.90;74.70;;;;;;5033213;28;20026;-82
2022/03/08 02:45:54;;;;;;;14.73;9.02;;;1.40;74.00;;;;;;5032903;28;20045;-81
2022/03/08 02:48:20;;;;;;;17.00;9.57;;;1.40;73.80;;;;;;5018241;28;20352;-80
2022/03/08 02:50:46;;;;;;;16.98;8.82;;;1.40;74.10;;;;;;5020400;28;20048;-82
2022/03/08 02:53:12;;;;;;;16.63;9.90;;;1.40;73.30;;;;;;5016082;28;20028;-84
2022/03/08 02:55:37;;;;;;;16.95;9.27;;;1.40;73.40;;;;;;5031393;28;20033;-81
2022/03/08 02:58:05;;;;;;;14.68;8.88;;;2.50;74.30;;;;;;5014943;28;20096;-78
2022/03/08 03:00:32;;;;;;;15.80;9.68;;;1.30;74.00;;;;;;5026704;28;20038;-82
2022/03/08 03:03:00;;;;;;;15.55;9.65;;;1.30;74.00;;;;;;5033764;28;20108;-83
2022/03/08 03:05:26;;;;;;;18.50;9.82;;;1.30;74.00;;;;;;5029792;28;20025;-79
2022/03/08 03:07:55;;;;;;;14.85;8.52;;;2.20;73.90;;;;;;5014272;28;20045;-80
2022/03/08 03:10:23;;;;;;;16.05;8.57;;;1.40;73.50;;;;;;5012364;28;20033;-81
2022/03/08 03:12:52;;;;;;;14.48;8.93;;;1.40;73.70;;;;;;5047280;22;20195;-83
2022/03/08 03:15:18;;;;;;;15.55;9.23;;;4.20;74.40;;;;;;5016795;28;20026;-86
2022/03/08 03:17:45;;;;;;;16.00;9.48;;;;;;;;;;5017580;28;20033;-81
2022/03/08 03:20:17;;;;;;;14.65;8.63;;;1.40;73.10;;;;;;5036823;28;20443;-83
2022/03/08 03:22:43;;;;;;;15.23;9.38;;;4.30;76.10;;;;;;5018708;28;20041;-79
2022/03/08 03:25:10;;;;;;;16.27;9.00;;;0.40;73.60;;;;;;5023572;28;20028;-79
2022/03/08 03:27:36;;;;;;;13.35;8.65;;;;;;;;;;5007135;28;20042;-83
2022/03/08 03:30:08;;;;;;;16.02;8.75;;;1.30;73.60;;;;;;5023239;28;20053;-81
2022/03/08 03:32:34;;;;;;;13.75;8.63;;;0.90;74.30;;;;;;5021332;28;20125;-81
2022/03/08 03:35:00;;;;;;;14.52;8.35;;;3.10;77.40;;;;;;5019924;28;20116;-81
2022/03/08 03:37:26;;;;;;;13.50;8.68;;;;;;;;;;5011310;28;20553;-80
2022/03/08 03:39:52;;;;;;;13.23;8.32;;;1.30;74.10;;;;;;5014334;28;20180;-80
2022/03/08 03:42:20;;;;;;;15.68;9.27;;;1.90;75.10;;;;;;5019706;28;20134;-78
2022/03/08 03:44:46;;;;;;;14.65;8.48;;;;;;;;;;5019263;28;20034;-82
2022/03/08 03:47:12;;;;;;;15.60;9.23;;;;;;;;;;5015227;28;20781;-81
2022/03/08 03:49:38;;;;;;;13.70;8.02;;;1.20;74.90;;;;;;5002607;28;20034;-86
2022/03/08 03:52:04;;;;;;;16.27;8.57;;;0.70;75.40;;;;;;5004765;28;20030;-84
2022/03/08 03:54:30;;;;;;;13.30;8.32;;;1.20;76.00;;;;;;5003791;28;20042;-79
2022/03/08 03:56:56;;;;;;;13.60;7.90;;;0.50;75.30;;;;;;5023077;28;20038;-79
2022/03/08 03:59:21;;;;;;;15.00;9.32;;;3.00;77.40;;;;;;5025844;28;20068;-82
2022/03/08 04:01:47;;;;;;;14.77;8.18;;;;;;;;;;5022033;28;20030;-84
2022/03/08 04:04:13;;;;;;;15.63;8.80;;;;;;;;;;5005427;28;20030;-82
2022/03/08 04:06:39;;;;;;;13.85;8.45;;;1.30;73.40;;;;;;5021635;28;20046;-80
2022/03/08 04:09:06;;;;;;;15.10;8.02;;;0.50;74.60;;;;;;5001028;28;20035;-82
2022/03/08 04:11:32;;;;;;;14.95;8.20;;;;;;;;;;5000155;28;20026;-83
2022/03/08 04:13:58;;;;;;;15.73;8.73;;;;;;;;;;5020265;28;20061;-82
2022/03/08 04:16:24;;;;;;;14.23;8.55;;;1.10;74.60;;;;;;5001865;28;21652;-85
2022/03/08 04:18:50;;;;;;;12.65;8.52;;;3.90;78.10;;;;;;5007659;28;20041;-82
2022/03/08 04:21:16;;;;;;;12.50;7.78;;;;;;;;;;5007922;28;20442;-82
2022/03/08 04:23:42;;;;;;;14.98;8.23;;;;;;;;;;5000797;28;20115;-84
2022/03/08 04:26:08;;;;;;;13.45;8.20;;;1.00;74.60;;;;;;5020978;28;20033;-81
2022/03/08 04:28:33;;;;;;;11.93;7.47;;;2.70;75.80;;;;;;5002206;28;20042;-81
2022/03/08 04:31:02;;;;;;;12.73;7.35;;;1.20;74.10;;;;;;5003651;28;20056;-82
2022/03/08 04:33:28;;;;;;;13.95;8.35;;;;;;;;;;5016807;28;20038;-82
2022/03/08 04:35:54;;;;;;;12.50;8.27;;;1.10;74.60;;;;;;5006321;28;20033;-83
2022/03/08 04:38:20;;;;;;;12.40;8.43;;;;;;;;;;5006897;28;20034;-82
2022/03/08 04:40:46;;;;;;;12.25;8.15;;;;;;;;;;5020823;28;20034;-82
2022/03/08 04:43:12;;;;;;;13.48;8.27;;;;;;;;;;5006163;28;20057;-84
2022/03/08 04:45:38;;;;;;;13.38;8.43;;;;;;;;;;5023059;28;20034;-83
2022/03/08 04:48:04;;;;;;;13.23;8.10;;;1.00;75.80;;;;;;5007668;28;20034;-83
2022/03/08 04:50:30;;;;;;;12.38;8.02;;;1.00;76.90;;;;;;5004931;28;20032;-88
2022/03/08 04:52:56;;;;;;;15.00;8.55;;;;;;;;;;5007884;28;20042;-84
2022/03/08 04:55:22;;;;;;;19.30;9.00;;;;;;;;;;5004486;28;20030;-80
2022/03/08 04:57:48;;;;;;;15.25;8.68;;;;;;;;;;5004599;28;20087;-82
2022/03/08 05:00:15;;;;;;;17.70;8.32;;;0.90;78.00;;;;;;5005263;28;20451;-82
2022/03/08 05:02:44;;;;;;;13.20;8.85;;;0.80;79.10;;;;;;5001088;28;20034;-80
2022/03/08 05:05:11;;;;;;;14.18;8.45;;;-1.30;79.40;;;;;;5004352;28;20109;-81
2022/03/08 05:07:37;;;;;;;14.90;8.85;;;0.80;80.60;;;;;;5011887;28;20151;-82
2022/03/08 05:10:04;;;;;;;15.20;8.90;;;0.70;81.10;;;;;;5027973;28;20616;-87
2022/03/08 05:12:30;;;;;;;17.10;9.13;;;0.70;81.40;;;;;;5010201;28;20037;-82
2022/03/08 05:14:56;;;;;;;15.77;9.32;;;;;;;;;;5021085;28;20113;-81
2022/03/08 05:17:22;;;;;;;15.07;9.52;;;0.70;81.10;;;;;;5009162;28;20030;-80
2022/03/08 05:19:48;;;;;;;15.07;8.40;;;;;;;;;;5014679;28;20026;-82
2022/03/08 05:22:14;;;;;;;14.13;8.13;;;0.60;82.30;;;;;;5015966;28;20037;-83
2022/03/08 05:24:40;;;;;;;15.52;8.30;;;;;;;;;;5007210;28;20034;-81
2022/03/08 05:27:05;;;;;;;12.65;8.15;;;0.70;81.90;;;;;;5010563;28;20026;-83
2022/03/08 05:29:31;;;;;;;16.27;9.20;;;2.00;84.20;;;;;;5029619;28;20096;-80
2022/03/08 05:31:57;;;;;;;15.45;9.23;;;0.80;82.70;;;;;;5011327;28;20503;-81
2022/03/08 05:34:23;;;;;;;14.90;8.52;;;0.60;82.70;;;;;;5007810;28;20025;-84
2022/03/08 05:36:48;;;;;;;16.23;9.32;;;1.10;82.40;;;;;;5007933;28;20043;-80
2022/03/08 05:39:14;;;;;;;17.95;9.15;;;2.90;84.20;;;;;;5006534;28;20411;-82
2022/03/08 05:41:40;;;;;;;16.95;8.48;;;;;;;;;;5020553;28;20272;-83
2022/03/08 05:44:06;;;;;;;14.20;8.70;;;;;;;;;;5021489;28;20136;-83
2022/03/08 05:46:32;;;;;;;13.00;8.38;;;0.40;84.30;;;;;;5009441;28;20030;-81
2022/03/08 05:48:58;;;;;;;12.95;8.13;;;;;;;;;;5010138;28;20032;-79
2022/03/08 05:51:24;;;;;;;14.17;7.87;;;0.30;84.80;;;;;;5008922;28;20096;-80
2022/03/08 05:53:51;;;;;;;15.18;8.65;;;0.20;85.50;;;;;;5010796;28;20030;-79
2022/03/08 05:56:17;;;;;;;13.40;7.82;;;0.30;85.60;;;;;;5007481;28;20026;-80
2022/03/08 05:58:42;;;;;;;12.88;7.60;;;0.40;86.00;;;;;;5005925;28;20112;-82
2022/03/08 06:01:08;;;;;;;13.95;8.40;;;0.40;86.30;;;;;;5017487;28;20495;-80
2022/03/08 06:03:34;;;;;;;14.88;7.93;;;0.40;85.80;;;;;;5005922;28;20030;-86
2022/03/08 06:05:59;;;;;;;16.27;8.27;;;0.40;85.70;;;;;;5008764;28;20084;-83
2022/03/08 06:08:25;;;;;;;12.05;7.28;;;0.40;85.90;;;;;;5017494;28;20041;-80
2022/03/08 06:10:51;;;;;;;16.98;8.48;;;0.40;85.90;;;;;;5012158;28;20034;-84
2022/03/08 06:13:17;;;;;;;13.65;7.90;;;0.50;85.40;;;;;;5004198;28;20032;-80
2022/03/08 06:15:42;;;;;;;14.18;7.63;;;0.50;85.60;;;;;;5009293;28;20061;-84
2022/03/08 06:18:08;;;;;;;12.35;7.57;;;0.60;85.20;;;;;;5004599;28;20034;-84
2022/03/08 06:20:34;;;;;;;13.45;7.55;;;0.60;83.40;;;;;;5007771;28;20072;-84
2022/03/08 06:23:00;;;;;;;11.90;7.22;;;0.70;82.40;;;;;;5021992;28;20062;-85
2022/03/08 06:25:26;;;;;;;12.32;7.57;;;;;;;;;;5007760;28;20053;-85
2022/03/08 06:27:51;;;;;;;12.30;7.22;;;0.80;81.90;;;;;;5004359;28;20070;-85
2022/03/08 06:30:17;;;;;;;12.98;7.78;;;3.10;83.40;;;;;;5025970;28;20021;-86
2022/03/08 06:32:43;;;;;;;10.88;6.75;;;;;;;;;;5034455;28;20037;-83
2022/03/08 06:35:09;;;;;;;11.38;7.00;;;0.90;80.20;;;;;;5024672;28;20041;-86
2022/03/08 06:37:35;;;;;;;12.68;7.18;;;;;;;;;;5018710;28;20106;-88
2022/03/08 06:40:01;;;;;;;12.30;7.30;;;0.90;79.60;;;;;;5022176;28;20084;-86
2022/03/08 06:42:27;;;;;;;11.27;7.18;;;3.80;82.30;;;;;;5034707;28;20132;-89
2022/03/08 06:44:52;;;;;;;13.38;7.35;;;0.90;82.30;;;;;;5020395;28;20037;-85
2022/03/08 06:47:18;;;;;;;14.38;7.72;;;2.90;81.90;;;;;;5030430;28;20045;-87
2022/03/08 06:49:47;;;;;;;14.18;7.25;;;1.10;80.60;;;;;;5026167;28;20054;-85
2022/03/08 06:52:13;;;;;;;18.35;7.57;;;1.10;80.00;;;;;;5022857;28;20040;-85
2022/03/08 06:54:40;;;;;;;21.58;7.97;;;1.00;80.40;;;;;;5020309;28;20054;-85
2022/03/08 06:57:06;;;;;;;13.38;7.55;;;1.60;80.40;;;;;;5022791;28;20034;-84
2022/03/08 06:59:32;;;;;;;11.75;7.32;;;1.30;79.40;;;;;;5025033;28;20030;-83
2022/03/08 07:01:58;;;;;;;12.65;7.10;;;1.40;78.20;;;;;;5026929;28;20112;-90
2022/03/08 07:04:24;;;;;;;12.85;7.30;;;;;;;;;;5027284;28;20545;-85
2022/03/08 07:06:50;;;;;;;14.98;7.72;;;1.60;76.40;;;;;;5029800;28;20048;-86
2022/03/08 07:09:16;;;;;;;14.20;7.40;;;1.70;77.00;;;;;;5044716;28;20030;-86
2022/03/08 07:11:43;;;;;;;12.13;6.68;;;2.40;76.80;;;;;;5022823;28;20507;-85
2022/03/08 07:14:10;;;;;;;13.55;7.05;;;3.40;76.40;;;;;;5020270;28;20059;-85
2022/03/08 07:16:36;;;;;;;12.95;7.03;;;1.60;74.60;;;;;;5015243;28;20102;-83
2022/03/08 07:19:01;;;;;;;10.98;6.78;;;1.30;73.30;;;;;;5019919;28;20034;-83
2022/03/08 07:21:28;;;;;;;11.80;6.38;;;;;;;;;;5001955;28;20037;-86
2022/03/08 07:23:54;;;;;;;12.85;6.65;;;1.90;72.50;;;;;;5033773;28;20033;-89
2022/03/08 07:26:19;;;;;;;14.77;6.68;;;4.20;74.50;;;;;;5034036;28;20034;-85
2022/03/08 07:28:45;;;;;;;11.55;6.18;;;2.30;71.90;;;;;;5017497;28;20026;-88
2022/03/08 07:31:12;;;;;;;9.20;5.90;;;2.20;70.30;;;;;;5022040;28;20053;-87
2022/03/08 07:33:38;;;;;;;10.23;5.95;;;2.40;69.70;;;;;;5035687;28;20112;-89
2022/03/08 07:36:04;;;;;;;10.50;6.10;;;2.50;69.90;;;;;;5021586;28;20141;-87
2022/03/08 07:38:30;;;;;;;11.68;6.40;;;2.60;70.50;;;;;;5026988;28;20014;-89
2022/03/08 07:40:56;;;;;;;10.68;6.00;;;;;;;;;;5043883;28;20077;-90
2022/03/08 07:43:24;;;;;;;10.57;6.55;;;2.90;67.90;;;;;;5030644;28;20025;-90
2022/03/08 07:45:50;;;;;;;13.80;9.23;;;2.90;68.10;;;;;;5029490;28;20040;-86
2022/03/08 07:48:16;;;;;;;12.05;6.95;;;4.40;69.00;;;;;;5026790;28;20093;-86
2022/03/08 07:50:42;;;;;;;11.35;6.88;;;;;;;;;;5042578;28;20033;-86
2022/03/08 07:53:08;;;;;;;11.50;6.40;;;3.30;66.90;;;;;;5026728;28;20017;-86
2022/03/08 07:55:34;;;;;;;9.45;6.30;;;3.20;66.80;;;;;;5028761;28;20040;-87
2022/03/08 07:58:01;;;;;;;12.88;6.70;;;3.40;67.00;;;;;;5028385;28;20061;-85
2022/03/08 08:00:27;;;;;;;9.30;5.88;;;3.30;66.40;;;;;;5045559;28;20030;-89
2022/03/08 08:02:53;;;;;;;10.52;5.32;;;3.40;67.20;;;;;;5026383;28;20010;-87
2022/03/08 08:05:20;;;;;;;8.73;5.57;;;3.50;67.60;;;;;;5024742;28;20048;-88
2022/03/08 08:07:46;;;;;;;7.82;5.57;;;3.60;65.10;;;;;;5021784;28;20097;-88
2022/03/08 08:10:12;;;;;;;10.13;5.72;;;4.40;67.10;;;;;;5026361;28;20060;-85
2022/03/08 08:12:38;;;;;;;9.65;5.20;;;5.80;67.80;;;;;;5024055;28;20034;-87
2022/03/08 08:15:06;;;;;;;8.13;5.45;;;5.30;66.40;;;;;;5027777;28;20053;-85
2022/03/08 08:17:32;;;;;;;8.98;5.45;;;;;;;;;;5027148;28;20027;-85
2022/03/08 08:19:58;;;;;;;10.10;5.20;;;4.10;63.60;;;;;;5037734;28;20033;-87
2022/03/08 08:22:24;;;;;;;8.70;5.15;;;;;;;;;;5022673;28;19998;-87
2022/03/08 08:24:50;;;;;;;10.95;5.30;;;4.40;62.80;;;;;;5017940;28;20026;-87
2022/03/08 08:27:15;;;;;;;9.13;5.68;;;7.30;65.70;;;;;;5020355;28;20030;-89
2022/03/08 08:29:41;;;;;;;8.18;4.70;;;7.00;65.20;;;;;;5022676;28;20140;-86
2022/03/08 08:32:07;;;;;;;10.55;4.78;;;4.70;64.00;;;;;;5021005;28;20029;-86
2022/03/08 08:34:32;;;;;;;11.27;5.28;;;4.40;63.80;;;;;;5019812;28;20081;-86
2022/03/08 08:36:58;;;;;;;7.70;4.65;;;4.40;63.00;;;;;;5020798;28;20026;-84
2022/03/08 08:39:24;;;;;;;8.88;5.50;;;4.50;63.20;;;;;;5014747;28;20511;-82
2022/03/08 08:41:50;;;;;;;8.70;4.70;;;4.80;62.40;;;;;;5025792;28;20025;-85
2022/03/08 08:44:18;;;;;;;10.93;5.47;;;6.50;64.00;;;;;;5039858;28;20030;-84
2022/03/08 08:46:45;;;;;;;9.75;5.25;;;5.80;63.10;;;;;;5025950;28;20030;-87
2022/03/08 08:49:11;;;;;;;7.18;4.55;;;4.60;62.10;;;;;;5044522;28;20022;-84
2022/03/08 08:51:38;;;;;;;8.52;4.95;;;7.20;63.10;;;;;;5043043;28;20028;-84
2022/03/08 08:54:04;;;;;;;6.85;4.88;;;7.30;63.20;;;;;;5026567;28;20029;-89
2022/03/08 08:56:30;;;;;;;11.80;5.00;;;5.20;61.50;;;;;;5026687;28;20025;-87
2022/03/08 08:58:56;;;;;;;12.35;5.38;;;5.30;61.20;;;;;;5022364;28;20022;-85
2022/03/08 09:01:21;;;;;;;9.48;5.07;;;4.70;61.10;;;;;;5026562;28;20033;-84
2022/03/08 09:03:47;;;;;;;7.75;4.80;;;5.20;60.40;;;;;;5038737;28;20057;-84
2022/03/08 09:06:13;;;;;;;8.48;4.63;;;5.20;60.40;;;;;;5026075;28;20532;-83
2022/03/08 09:08:39;;;;;;;8.68;5.32;;;5.40;59.80;;;;;;5039983;28;20087;-90
2022/03/08 09:11:08;;;;;;;7.15;4.80;;;5.30;60.00;;;;;;5024049;28;20109;-87
2022/03/08 09:13:34;;;;;;;8.25;4.53;;;6.40;59.60;;;;;;5023557;28;20057;-84
2022/03/08 09:15:59;;;;;;;7.45;4.72;;;5.50;59.00;;;;;;5023910;28;20022;-84
2022/03/08 09:18:25;;;;;;;9.40;4.32;;;5.00;59.30;;;;;;5040900;28;20058;-87
2022/03/08 09:20:50;;;;;;;13.75;5.30;;;5.50;59.30;;;;;;5015055;28;20169;-83
2022/03/08 09:23:16;;;;;;;7.43;4.75;;;5.50;59.00;;;;;;5017644;28;20152;-86
2022/03/08 09:25:45;;;;;;;7.38;4.55;;;6.20;59.90;;;;;;5030158;28;20037;-85
2022/03/08 09:28:10;;;;;;;8.50;4.85;;;5.60;59.40;;;;;;5030481;28;20060;-85
2022/03/08 09:30:37;;;;;;;10.15;4.68;;;5.70;59.00;;;;;;5043722;28;20018;-84
2022/03/08 09:33:03;;;;;;;8.05;5.47;;;5.90;59.50;;;;;;5037339;28;20026;-87
2022/03/08 09:35:29;;;;;;;7.03;4.32;;;7.00;58.40;;;;;;5030642;28;20026;-87
2022/03/08 09:37:55;;;;;;;6.45;4.57;;;8.30;60.10;;;;;;5027355;28;20042;-84
2022/03/08 09:40:22;;;;;;;7.28;4.60;;;7.40;59.50;;;;;;5043121;28;20112;-83
2022/03/08 09:42:49;;;;;;;6.57;4.38;;;8.50;59.10;;;;;;5026953;28;20103;-85
2022/03/08 09:45:17;;;;;;;8.05;4.75;;;8.10;58.00;;;;;;5023285;28;20033;-86
2022/03/08 09:47:43;;;;;;;7.18;4.50;;;8.20;58.00;;;;;;5014071;28;20048;-88
2022/03/08 09:50:11;;;;;;;8.18;4.75;;;8.20;58.50;;;;;;5002864;28;20093;-88
2022/03/08 09:52:38;;;;;;;9.70;4.50;;;8.80;58.00;;;;;;5013330;28;20109;-83
2022/03/08 09:55:06;;;;;;;7.68;5.05;;;6.70;57.00;;;;;;5013189;28;20030;-84
2022/03/08 09:57:34;;;;;;;6.70;4.75;;;6.60;56.20;;;;;;5037529;28;20499;-83
2022/03/08 10:00:00;;;;;;;6.75;4.93;;;8.20;57.20;;;;;;5022088;28;20484;-88
2022/03/08 10:02:39;;;;;;;7.18;4.50;;;7.70;57.10;;;;;;5025455;28;20098;-84
2022/03/08 10:05:06;;;;;;;7.57;5.00;;;8.60;57.60;;;;;;5037371;28;20038;-90
2022/03/08 10:07:32;;;;;;;11.75;5.45;;;6.70;57.30;;;;;;5036158;28;20034;-85
2022/03/08 10:09:59;;;;;;;9.20;5.18;;;8.60;57.40;;;;;;5020671;28;20030;-88
2022/03/08 10:12:26;;;;;;;8.25;5.13;;;8.30;56.70;;;;;;5025114;28;20085;-81
2022/03/08 10:14:52;;;;;;;7.32;4.95;;;7.00;55.60;;;;;;5038009;28;20054;-89
2022/03/08 10:17:39;;;;;;;7.38;5.15;;;8.40;56.60;;;;;;5025730;28;20048;-83
2022/03/08 10:20:07;;;;;;;7.65;5.22;;;6.90;55.40;;;;;;5040286;28;20041;-82
2022/03/08 10:22:39;;;;;;;7.18;4.82;;;7.10;55.40;;;;;;5022882;28;20101;-84
2022/03/08 10:25:25;;;;;;;7.80;4.97;;;7.60;55.80;;;;;;5018539;28;20116;-85
2022/03/08 10:27:54;;;;;;;7.60;5.03;;;8.80;55.60;;;;;;5027237;28;20449;-84
2022/03/08 10:30:24;;;;;;;8.55;5.43;;;7.90;56.10;;;;;;5025877;28;20028;-82
2022/03/08 10:32:53;;;;;;;9.20;5.82;;;7.40;54.60;;;;;;5039672;28;20006;-82
2022/03/08 10:35:24;;;;;;;10.40;5.50;;;7.50;55.10;;;;;;5025460;28;20029;-83
2022/03/08 10:37:50;;;;;;;7.53;4.80;;;7.50;54.40;;;;;;5018720;28;20022;-82
2022/03/08 10:40:23;;;;;;;7.65;5.00;;;7.50;55.40;;;;;;5027412;28;20106;-81
2022/03/08 10:43:00;;;;;;;17.13;5.22;;;7.80;53.60;;;;;;5034488;28;20030;-82
2022/03/08 10:45:29;;;;;;;7.60;4.78;;;7.80;53.30;;;;;;5014392;28;20476;-81
2022/03/08 10:47:55;;;;;;;6.68;4.65;;;;;;;;;;5018455;28;20099;-83
2022/03/08 10:50:30;;;;;;;7.35;5.00;;;7.80;52.90;;;;;;5022670;28;20033;-86
2022/03/08 10:52:58;;;;;;;7.28;4.72;;;7.70;53.00;;;;;;5040234;28;20037;-83
2022/03/08 10:55:27;;;;;;;9.15;5.00;;;7.60;53.80;;;;;;5022755;28;20034;-85
2022/03/08 10:58:01;;;;;;;7.90;5.10;;;7.90;53.70;;;;;;5017543;28;20117;-83
2022/03/08 11:00:44;;;;;;;8.43;5.15;;;7.90;54.10;;;;;;5037052;28;20053;-88
2022/03/08 11:03:15;;;;;;;8.88;5.40;;;8.10;53.00;;;;;;5026194;28;20110;-84
2022/03/08 11:05:44;;;;;;;8.07;5.40;;;8.20;52.60;;;;;;5028524;28;20037;-83
2022/03/08 11:08:11;;;;;;;9.55;5.57;;;8.40;51.90;;;;;;5023907;28;20034;-83
2022/03/08 11:10:37;;;;;;;8.45;5.47;;;8.30;52.00;;;;;;5019805;28;20030;-82
2022/03/08 11:13:04;;;;;;;8.52;5.28;;;;;;;;;;5027744;28;20128;-82
2022/03/08 11:15:32;;;;;;;8.27;5.30;;;8.30;51.90;;;;;;5036112;28;20054;-84
2022/03/08 11:17:59;;;;;;;7.03;5.18;;;8.10;52.50;;;;;;5026910;28;20124;-85
2022/03/08 11:20:27;;;;;;;9.90;5.20;;;8.30;52.80;;;;;;5045309;28;20030;-82
2022/03/08 11:22:55;;;;;;;8.50;5.28;;;8.50;52.50;;;;;;5031968;28;20038;-87
2022/03/08 11:25:24;;;;;;;7.93;5.35;;;8.30;51.40;;;;;;5031279;28;20025;-82
2022/03/08 11:27:50;;;;;;;9.07;5.30;;;;;;;;;;5044859;28;20029;-84
2022/03/08 11:30:20;;;;;;;6.97;5.10;;;8.40;52.30;;;;;;5020597;28;20134;-81
2022/03/08 11:32:46;;;;;;;9.80;5.65;;;8.50;53.50;;;;;;5028088;28;20029;-82
2022/03/08 11:35:18;;;;;;;8.05;5.35;;;11.60;55.10;;;;;;5030771;28;20018;-89
2022/03/08 11:37:47;;;;;;;8.05;5.30;;;8.40;51.50;;;;;;5034749;28;20018;-90
2022/03/08 11:40:17;;;;;;;9.35;5.47;;;8.40;51.90;;;;;;5046071;28;20038;-87
2022/03/08 11:42:51;;;;;;;12.18;5.50;;;8.60;51.90;;;;;;5036348;28;20025;-89
2022/03/08 11:45:23;;;;;;;9.98;5.72;;;8.60;52.40;;;;;;5036869;28;20105;-88
2022/03/08 11:48:04;;;;;;;7.55;4.78;;;8.70;51.60;;;;;;5030730;28;20045;-89
2022/03/08 11:50:38;;;;;;;9.07;5.57;;;8.60;52.00;;;;;;5064610;23;20052;-83
2022/03/08 11:53:10;;;;;;;10.70;5.38;;;8.80;51.00;;;;;;5044780;28;20237;-80
2022/03/08 11:55:41;;;;;;;9.23;5.55;;;9.00;51.00;;;;;;5033527;28;20047;-83
2022/03/08 11:58:14;;;;;;;20.38;5.82;;;8.80;51.80;;;;;;5015445;28;20025;-85
2022/03/08 12:00:42;;;;;;;10.38;6.03;;;8.80;52.30;;;;;;5007238;28;20025;-84
2022/03/08 12:03:38;;;;;;;10.10;5.60;;;8.90;51.90;;;;;;5019106;28;20040;-85
2022/03/08 12:06:19;;;;;;;9.15;5.85;;;9.00;51.70;;;;;;4999627;28;20093;-82
2022/03/08 12:08:46;;;;;;;10.85;5.60;;;9.10;51.40;;;;;;5019689;28;20153;-83
2022/03/08 12:11:32;;;;;;;8.55;5.70;;;9.20;51.40;;;;;;5016657;28;20030;-84
2022/03/08 12:14:03;;;;;;;11.68;5.60;;;9.20;50.60;;;;;;5004410;28;20386;-82
2022/03/08 12:16:29;;;;;;;10.80;5.43;;;9.60;51.10;;;;;;5028012;28;20081;-84
2022/03/08 12:19:00;;;;;;;12.30;5.50;;;11.00;51.20;;;;;;5023500;28;20033;-83
2022/03/08 12:21:25;;;;;;;;;;;11.20;51.30;;;;;;5017260;28;20076;-83
2022/03/08 12:24:00;;;;;;;9.35;5.60;;;9.30;50.50;;;;;;5018309;28;19925;-85
2022/03/08 12:26:50;;;;;;;8.25;5.50;;;8.70;50.40;;;;;;5018967;28;20088;-80
2022/03/08 12:29:21;;;;;;;11.73;5.85;;;9.40;50.40;;;;;;5021187;28;20022;-82
2022/03/08 12:32:05;;;;;;;11.70;6.30;;;9.30;51.10;;;;;;5021931;28;20029;-83
2022/03/08 12:34:39;;;;;;;15.90;5.60;;;9.40;50.30;;;;;;5020092;28;20029;-83
2022/03/08 12:37:06;;;;;;;10.95;6.30;;;10.10;51.00;;;;;;5018199;28;20022;-84
2022/03/08 12:40:02;;;;;;;11.38;5.78;;;9.50;48.70;;;;;;5014358;28;20033;-83
2022/03/08 12:42:51;;;;;;;12.00;5.88;;;9.40;49.20;;;;;;5016324;28;20454;-82
2022/03/08 12:45:20;;;;;;;13.02;5.88;;;9.50;49.40;;;;;;5020282;28;20033;-85
2022/03/08 12:47:47;;;;;;;9.23;5.68;;;9.70;49.40;;;;;;5015635;28;20068;-83
2022/03/08 12:50:16;;;;;;;11.35;6.22;;;9.60;48.90;;;;;;5016344;28;20405;-83
2022/03/08 12:52:48;;;;;;;11.00;5.85;;;9.50;49.50;;;;;;5016791;28;20029;-84
2022/03/08 12:55:17;;;;;;;7.97;5.55;;;9.60;49.90;;;;;;5017842;28;20056;-83
2022/03/08 12:57:52;;;;;;;11.05;6.05;;;9.40;50.00;;;;;;5015727;28;20035;-83
2022/03/08 13:00:34;;;;;;;13.23;6.22;;;9.60;49.60;;;;;;5020023;28;20030;-83
2022/03/08 13:03:01;;;;;;;10.93;6.70;;;9.60;49.90;;;;;;5014354;28;20473;-85